Mineral Springs, Pennsylvania
Current Conditions -  °F | °C
As of 4:54 AM on Saturday 29 Nov 2014 (Local Time) from KFIG Reporting Station
Light Snow Light Snow  
Wind Chill: 21°   Ceiling: 7000
Heat Index: 21°   Visibility: 5mi
Dew Point: 18°   Wind: 3mph
Humidity: 88%   Direction: 50°NE
Pressure: 30.17"   Gusts: NA
Location:  41°N, 78.36°W
Report Text: KFIG 290954Z AUTO 05003KT 5SM -SN BR FEW039 OVC070 M06/M08 A3017 RMK AO2 SLP240 P0001 T10611078
Loading
Personal Weather Stations






























Interactive Weather Map New forecast layout! Learn more

10-Day Weather Forecast

Advertisements
Track Severe Weather on mobile